Expedition Expedition Navigation Software

You are not logged in. Would you like to login or register?



8/04/2021 3:10 pm  #1


AIS da

Hello,

looking for a good way to share AIS data between multiple PC's onboard.

The boat has an H5000 system and AIS data is sent to nav PC via USB, looking for a solution to rebroadcast data via wifi to an on-deck tablet. I have tried the "broadcast received data" under the AIS connection channel and it appears to send the data but doesn't properly format the data and won't be properly read by the tablet. The 0183 sentences are sent as a continuous stream without the proper line breaks.

Is there a good stable way to share USB 0183 data from one instance of expedition to another via a wifi network?

Last edited by smokeseattle (8/04/2021 3:11 pm)

 

8/05/2021 1:42 pm  #2


Re: AIS da

Expedition should send the data exactly as it is received, including the carriage returns and line feeds in the NMEA data stream.

What is the AIS?

 

8/05/2021 3:08 pm  #3


Re: AIS da

Thanks for the quick reply,

it's a NAIS-500,  NMEA 1083 AIS instrument type with a 38400 Baud rate coming in via COM port (USB), , it looks normal and is received properly on the nav station laptop, but all scattered on the remote tablet.

on the remote tablet, I set up a UDP network connection and match the port and select NMEA 0183 AIS for the instrument type. 

Am I missing anything obvious?
 

     Thread Starter
 

8/05/2021 5:13 pm  #4


Re: AIS da

It sounds ok. It may be something network related.

You could send an image of the raw data in Exp and what is being seen on the tablet.

Another option would be a NMEA 2000 wifi option to send the AIS data.

Last edited by Nick (8/05/2021 5:13 pm)

 

9/29/2021 12:42 pm  #5


Re: AIS da

Finally getting back to sorting the AIS broadcast issue. saved a section of the data from both the nav station PC and the remote tablet for reference.  Could this be a settings issue?

Nav Station PC - Hardwired into AIS reciever. Recieved and displays without issue
GPGSV,4,1,14,01,37,219,,03,72,296,49,06,05,333,39,16,00,152,*7B

$GPGSV,4,2,14,17,02,284,,19,05,30529,21,22,204,29,22,79,186,48*73

$GPGSV,4,3,14,25,10,032,36,26,21,125,47,31,55,068,46,32,11,077,38*7F

!AIVDM,1,1,,A,B5Nu4G00A5kwd6l<N18?wtUCP06,0*2A

$GPGSV,4,4,14,46,35,189,43,51,33,159,48*7A

!AIVDM,1,1,,A,H52T1vi<D4AD<D@000000000000,2*60

$GPZDA,005557.00,07,09,2021,00,00*6B

$GPGBS,005557.00,1.1,1.2,1.9,,,,*48

!AIVDO,1,1,,,B52Q;cP00=ksRDVlH1KQ1OG5oP06,0*26

$GPRMC,005558.00,A,4739.82945,N,12223.68872,W,0.031,,070921,,,D*6D

$GPGGA,005558.00,4739.82945,N,12223.68872,W,2,11,1.00,3.1,M,-18.8,M,,0000*67
$GPGSA,M,3,22,25,26,31,19,46,32,03,51,21,06,,1.57,1.00,1.21*06

$GPGSV,4,1,14,01,37,219,,03,72,296,49,06,05,333,39,16,00,152,*7B

!AIVDM,1,1,,A,H52M`ETTC=D5lA4@<ED?00186410,0*5F

$GPGSV,4,2,14,17,02,284,,19,05,305,29,21,22,204,30,22,79,186,48*7B

$GPGSV,4,3,14,25,10,032,36,26,21,125,48,31,55,068,46,32,11,077,38*70

$GPGSV,4,4,14,46,35,189,43,51,33,159,48*7A

$GPZDA,005558.00,07,09,2021,,00*64

$GPGBS,005558.00,1.1,1.2,1.9,,,,*47



Remote Tablet - AIS data received Via UDP  - Doesnt recieve
!AIVDM,1,1,,!AIVDM,1,1,,B!AIVDM,1,1,,$GPRMC,005610.00,A,4739.82952,N,12223.68957,52,N,12223.6895$GPGSV,4,1,14$GPGSV,4,3,10*08

!AIVDM,2,2,4,B!AIVDM,1,1,,A,!AIVDM,1,1,,l=fsQ3wU1nDmJ,0*74

$GPRMC,005611.00,A,4739.829!AIVDM,1,1,,A$GPGSA,M,3,22,1,16,00,152,*73
QRjH0<2n,0*43

$GPZDA,005611!AIVDM,1,1,,B!AIVDM,1,1,,!AIVDM,1,1,,B06,0*50

!AIV!AIVDM,1,1,,$GPGGA,005612SA,M,3,22,25,26h@@@@@@@@@@@@$GPGSV,4,3,14$GPZDA,005612.!AIVDM,1,1,,A!AIVDM,1,1,,A!AIVDM,1,1,,A,!AIVDM,1,1,,A,1!AIVDM,1,1,,A$GPGGA,005613.222222220U20A2!AIVDM,1,1,,B,15NP@s0P00o?ja0K$GPZDA,005613.00,0!AIVDM,1,1,,B!AIVDO,1,1,,,B5!AIVDM,1,1,,B,
$GPRMC,005614.00,A,4739.82948,GPGGA,005614.00$GPGSV,4,1,14,$GPGSV,4,3,14,$GPGSV,4,4,14,!AIVDO,1,1,,,B52Q;cP00=ksR@6lH1KQ1O1UoP06,0*54!AIVDM,1,1,,B,!AIVDM,1,1,,B1,,,D*67
 

Last edited by smokeseattle (9/29/2021 12:42 pm)

     Thread Starter
 

9/29/2021 5:00 pm  #6


Re: AIS da

The sentences are all mangled with each other ...

 

Board footera

 

Powered by Boardhost. Create a Free Forum

Interested in advertising here? Over a thousand active navigators and Expedition users visit this forum. Click here to contact the administrator.